sensor_id;sensor_type;location;lat;lon;timestamp;P1;durP1;ratioP1;P2;durP2;ratioP2
31786;SDS011;18356;52.380;9.820;2022-12-24T00:00:05;29.20;;;11.87;;
31786;SDS011;18356;52.380;9.820;2022-12-24T00:02:31;33.87;;;11.63;;
31786;SDS011;18356;52.380;9.820;2022-12-24T00:04:57;44.40;;;13.80;;
31786;SDS011;18356;52.380;9.820;2022-12-24T00:07:23;31.63;;;11.93;;
31786;SDS011;18356;52.380;9.820;2022-12-24T00:09:49;24.73;;;10.30;;
31786;SDS011;18356;52.380;9.820;2022-12-24T00:12:15;39.47;;;13.07;;
31786;SDS011;18356;52.380;9.820;2022-12-24T00:14:41;31.40;;;12.27;;
31786;SDS011;18356;52.380;9.820;2022-12-24T00:17:07;26.53;;;11.17;;
31786;SDS011;18356;52.380;9.820;2022-12-24T00:19:33;34.93;;;12.43;;
31786;SDS011;18356;52.380;9.820;2022-12-24T00:21:59;28.50;;;10.60;;
31786;SDS011;18356;52.380;9.820;2022-12-24T00:24:25;54.97;;;15.23;;
31786;SDS011;18356;52.380;9.820;2022-12-24T00:26:51;40.87;;;13.50;;
31786;SDS011;18356;52.380;9.820;2022-12-24T00:29:17;53.63;;;14.83;;
31786;SDS011;18356;52.380;9.820;2022-12-24T00:31:43;27.80;;;11.87;;
31786;SDS011;18356;52.380;9.820;2022-12-24T00:34:09;37.87;;;14.10;;
31786;SDS011;18356;52.380;9.820;2022-12-24T00:36:35;26.50;;;11.80;;
31786;SDS011;18356;52.380;9.820;2022-12-24T00:39:01;27.97;;;11.53;;
31786;SDS011;18356;52.380;9.820;2022-12-24T00:41:27;35.10;;;12.93;;
31786;SDS011;18356;52.380;9.820;2022-12-24T00:43:54;29.57;;;11.73;;
31786;SDS011;18356;52.380;9.820;2022-12-24T00:46:20;28.63;;;11.53;;
31786;SDS011;18356;52.380;9.820;2022-12-24T00:48:47;24.73;;;10.80;;
31786;SDS011;18356;52.380;9.820;2022-12-24T00:51:13;33.20;;;11.90;;
31786;SDS011;18356;52.380;9.820;2022-12-24T00:53:39;27.77;;;11.20;;
31786;SDS011;18356;52.380;9.820;2022-12-24T00:56:05;25.57;;;10.10;;
31786;SDS011;18356;52.380;9.820;2022-12-24T00:58:31;34.50;;;11.87;;
31786;SDS011;18356;52.380;9.820;2022-12-24T01:00:57;24.60;;;10.67;;
31786;SDS011;18356;52.380;9.820;2022-12-24T01:03:23;25.07;;;11.03;;
31786;SDS011;18356;52.380;9.820;2022-12-24T01:06:06;23.87;;;9.63;;
31786;SDS011;18356;52.380;9.820;2022-12-24T01:08:32;23.97;;;11.10;;
31786;SDS011;18356;52.380;9.820;2022-12-24T01:10:59;25.83;;;11.90;;
31786;SDS011;18356;52.380;9.820;2022-12-24T01:13:25;28.53;;;11.43;;
31786;SDS011;18356;52.380;9.820;2022-12-24T01:15:51;24.37;;;11.67;;
31786;SDS011;18356;52.380;9.820;2022-12-24T01:18:17;36.70;;;13.70;;
31786;SDS011;18356;52.380;9.820;2022-12-24T01:20:43;27.77;;;12.57;;
31786;SDS011;18356;52.380;9.820;2022-12-24T01:23:09;30.23;;;13.23;;
31786;SDS011;18356;52.380;9.820;2022-12-24T01:25:38;41.17;;;14.37;;
31786;SDS011;18356;52.380;9.820;2022-12-24T01:28:04;33.07;;;12.73;;
31786;SDS011;18356;52.380;9.820;2022-12-24T01:30:30;32.57;;;12.03;;
31786;SDS011;18356;52.380;9.820;2022-12-24T01:32:57;34.20;;;13.43;;
31786;SDS011;18356;52.380;9.820;2022-12-24T01:35:23;44.37;;;14.53;;
31786;SDS011;18356;52.380;9.820;2022-12-24T01:37:49;24.97;;;10.50;;
31786;SDS011;18356;52.380;9.820;2022-12-24T01:40:16;25.13;;;10.80;;
31786;SDS011;18356;52.380;9.820;2022-12-24T01:43:01;31.83;;;11.73;;
31786;SDS011;18356;52.380;9.820;2022-12-24T01:46:06;29.67;;;11.17;;
31786;SDS011;18356;52.380;9.820;2022-12-24T01:51:45;35.70;;;11.73;;
31786;SDS011;18356;52.380;9.820;2022-12-24T01:54:03;47.23;;;12.97;;
31786;SDS011;18356;52.380;9.820;2022-12-24T01:56:30;27.20;;;11.57;;
31786;SDS011;18356;52.380;9.820;2022-12-24T01:58:59;29.20;;;10.93;;
31786;SDS011;18356;52.380;9.820;2022-12-24T02:01:27;30.77;;;11.37;;
31786;SDS011;18356;52.380;9.820;2022-12-24T02:03:53;24.20;;;11.03;;
31786;SDS011;18356;52.380;9.820;2022-12-24T02:06:19;38.37;;;11.93;;
31786;SDS011;18356;52.380;9.820;2022-12-24T02:08:45;40.87;;;13.20;;
31786;SDS011;18356;52.380;9.820;2022-12-24T02:11:13;30.97;;;11.67;;
31786;SDS011;18356;52.380;9.820;2022-12-24T02:13:39;49.37;;;13.67;;
31786;SDS011;18356;52.380;9.820;2022-12-24T02:18:56;39.10;;;11.63;;
31786;SDS011;18356;52.380;9.820;2022-12-24T02:29:22;54.43;;;15.07;;
31786;SDS011;18356;52.380;9.820;2022-12-24T02:36:54;35.17;;;13.17;;
31786;SDS011;18356;52.380;9.820;2022-12-24T02:39:24;52.90;;;15.00;;
31786;SDS011;18356;52.380;9.820;2022-12-24T02:41:51;38.80;;;13.10;;
31786;SDS011;18356;52.380;9.820;2022-12-24T02:44:32;53.73;;;15.07;;
31786;SDS011;18356;52.380;9.820;2022-12-24T02:46:59;32.90;;;13.13;;
31786;SDS011;18356;52.380;9.820;2022-12-24T02:49:26;40.67;;;14.00;;
31786;SDS011;18356;52.380;9.820;2022-12-24T02:51:52;51.27;;;15.53;;
31786;SDS011;18356;52.380;9.820;2022-12-24T02:54:18;28.83;;;12.33;;
31786;SDS011;18356;52.380;9.820;2022-12-24T02:57:07;37.43;;;12.40;;
31786;SDS011;18356;52.380;9.820;2022-12-24T03:05:06;21.37;;;6.30;;
31786;SDS011;18356;52.380;9.820;2022-12-24T03:07:52;32.83;;;5.57;;
31786;SDS011;18356;52.380;9.820;2022-12-24T03:10:33;23.73;;;5.30;;
31786;SDS011;18356;52.380;9.820;2022-12-24T03:13:02;20.37;;;5.47;;
31786;SDS011;18356;52.380;9.820;2022-12-24T03:15:28;30.47;;;5.10;;
31786;SDS011;18356;52.380;9.820;2022-12-24T03:17:57;28.40;;;5.00;;
31786;SDS011;18356;52.380;9.820;2022-12-24T03:20:36;28.60;;;6.00;;
31786;SDS011;18356;52.380;9.820;2022-12-24T03:23:02;19.17;;;4.80;;
31786;SDS011;18356;52.380;9.820;2022-12-24T03:25:28;29.07;;;5.60;;
31786;SDS011;18356;52.380;9.820;2022-12-24T03:27:55;23.23;;;5.23;;
31786;SDS011;18356;52.380;9.820;2022-12-24T03:30:21;26.60;;;5.17;;
31786;SDS011;18356;52.380;9.820;2022-12-24T03:32:47;27.17;;;4.53;;
31786;SDS011;18356;52.380;9.820;2022-12-24T03:35:13;22.50;;;4.83;;
31786;SDS011;18356;52.380;9.820;2022-12-24T03:37:39;22.27;;;4.27;;
31786;SDS011;18356;52.380;9.820;2022-12-24T03:40:06;38.57;;;25.17;;
31786;SDS011;18356;52.380;9.820;2022-12-24T03:42:32;18.40;;;3.50;;
31786;SDS011;18356;52.380;9.820;2022-12-24T03:44:58;23.17;;;4.63;;
31786;SDS011;18356;52.380;9.820;2022-12-24T03:47:24;24.57;;;4.40;;
31786;SDS011;18356;52.380;9.820;2022-12-24T03:49:50;29.70;;;4.90;;
31786;SDS011;18356;52.380;9.820;2022-12-24T03:52:16;24.40;;;4.33;;
31786;SDS011;18356;52.380;9.820;2022-12-24T03:54:42;27.10;;;6.80;;
31786;SDS011;18356;52.380;9.820;2022-12-24T03:57:08;26.63;;;4.37;;
31786;SDS011;18356;52.380;9.820;2022-12-24T03:59:34;19.67;;;3.77;;
31786;SDS011;18356;52.380;9.820;2022-12-24T04:02:00;25.47;;;3.93;;
31786;SDS011;18356;52.380;9.820;2022-12-24T04:04:26;27.93;;;4.97;;
31786;SDS011;18356;52.380;9.820;2022-12-24T04:06:52;26.70;;;4.63;;
31786;SDS011;18356;52.380;9.820;2022-12-24T04:09:18;33.73;;;4.57;;
31786;SDS011;18356;52.380;9.820;2022-12-24T04:11:44;19.53;;;3.90;;
31786;SDS011;18356;52.380;9.820;2022-12-24T04:14:09;21.93;;;3.93;;
31786;SDS011;18356;52.380;9.820;2022-12-24T04:16:35;23.80;;;4.20;;
31786;SDS011;18356;52.380;9.820;2022-12-24T04:19:01;25.17;;;4.50;;
31786;SDS011;18356;52.380;9.820;2022-12-24T04:21:27;21.87;;;6.60;;
31786;SDS011;18356;52.380;9.820;2022-12-24T04:23:53;31.13;;;8.47;;
31786;SDS011;18356;52.380;9.820;2022-12-24T04:26:19;27.00;;;3.73;;
31786;SDS011;18356;52.380;9.820;2022-12-24T04:28:45;27.03;;;4.90;;
31786;SDS011;18356;52.380;9.820;2022-12-24T04:31:13;24.53;;;4.47;;
31786;SDS011;18356;52.380;9.820;2022-12-24T04:33:39;31.73;;;9.13;;
31786;SDS011;18356;52.380;9.820;2022-12-24T04:36:05;23.93;;;4.63;;
31786;SDS011;18356;52.380;9.820;2022-12-24T04:38:32;25.30;;;4.13;;
31786;SDS011;18356;52.380;9.820;2022-12-24T04:41:02;32.40;;;13.83;;
31786;SDS011;18356;52.380;9.820;2022-12-24T04:43:28;28.77;;;4.77;;
31786;SDS011;18356;52.380;9.820;2022-12-24T04:45:55;22.47;;;4.40;;
31786;SDS011;18356;52.380;9.820;2022-12-24T04:48:21;23.80;;;4.20;;
31786;SDS011;18356;52.380;9.820;2022-12-24T04:50:47;21.80;;;4.23;;
31786;SDS011;18356;52.380;9.820;2022-12-24T04:53:13;23.07;;;4.43;;
31786;SDS011;18356;52.380;9.820;2022-12-24T04:55:43;28.77;;;4.97;;
31786;SDS011;18356;52.380;9.820;2022-12-24T04:58:09;26.47;;;4.07;;
31786;SDS011;18356;52.380;9.820;2022-12-24T05:00:35;29.70;;;4.30;;
31786;SDS011;18356;52.380;9.820;2022-12-24T05:03:01;30.63;;;5.13;;
31786;SDS011;18356;52.380;9.820;2022-12-24T05:05:27;25.93;;;3.77;;
31786;SDS011;18356;52.380;9.820;2022-12-24T05:07:53;30.37;;;4.90;;
31786;SDS011;18356;52.380;9.820;2022-12-24T05:10:19;21.53;;;4.07;;
31786;SDS011;18356;52.380;9.820;2022-12-24T05:12:45;19.47;;;3.63;;
31786;SDS011;18356;52.380;9.820;2022-12-24T05:15:11;26.33;;;4.40;;
31786;SDS011;18356;52.380;9.820;2022-12-24T05:17:37;21.77;;;3.27;;
31786;SDS011;18356;52.380;9.820;2022-12-24T05:20:03;24.90;;;3.70;;
31786;SDS011;18356;52.380;9.820;2022-12-24T05:22:29;22.57;;;3.60;;
31786;SDS011;18356;52.380;9.820;2022-12-24T05:25:14;23.47;;;3.93;;
31786;SDS011;18356;52.380;9.820;2022-12-24T05:27:59;21.03;;;3.53;;
31786;SDS011;18356;52.380;9.820;2022-12-24T05:30:25;28.57;;;4.37;;
31786;SDS011;18356;52.380;9.820;2022-12-24T05:32:51;28.40;;;4.03;;
31786;SDS011;18356;52.380;9.820;2022-12-24T05:35:17;24.40;;;4.03;;
31786;SDS011;18356;52.380;9.820;2022-12-24T05:37:44;19.50;;;3.73;;
31786;SDS011;18356;52.380;9.820;2022-12-24T05:40:10;21.40;;;4.37;;
31786;SDS011;18356;52.380;9.820;2022-12-24T05:42:36;20.70;;;3.87;;
31786;SDS011;18356;52.380;9.820;2022-12-24T05:45:02;23.60;;;3.70;;
31786;SDS011;18356;52.380;9.820;2022-12-24T05:47:28;21.30;;;3.60;;
31786;SDS011;18356;52.380;9.820;2022-12-24T05:49:54;26.47;;;4.37;;
31786;SDS011;18356;52.380;9.820;2022-12-24T05:52:20;26.73;;;4.73;;
31786;SDS011;18356;52.380;9.820;2022-12-24T05:54:46;31.53;;;5.10;;
31786;SDS011;18356;52.380;9.820;2022-12-24T05:57:12;29.30;;;4.73;;
31786;SDS011;18356;52.380;9.820;2022-12-24T05:59:38;26.37;;;4.87;;
31786;SDS011;18356;52.380;9.820;2022-12-24T06:02:04;36.70;;;5.67;;
31786;SDS011;18356;52.380;9.820;2022-12-24T06:04:30;37.47;;;6.17;;
31786;SDS011;18356;52.380;9.820;2022-12-24T06:06:56;28.40;;;5.07;;
31786;SDS011;18356;52.380;9.820;2022-12-24T06:09:22;28.00;;;5.13;;
31786;SDS011;18356;52.380;9.820;2022-12-24T06:11:48;26.13;;;4.87;;
31786;SDS011;18356;52.380;9.820;2022-12-24T06:14:14;34.70;;;5.67;;
31786;SDS011;18356;52.380;9.820;2022-12-24T06:16:40;30.17;;;6.10;;
31786;SDS011;18356;52.380;9.820;2022-12-24T06:19:06;31.83;;;5.37;;
31786;SDS011;18356;52.380;9.820;2022-12-24T06:21:32;33.90;;;5.57;;
31786;SDS011;18356;52.380;9.820;2022-12-24T06:23:58;29.17;;;5.57;;
31786;SDS011;18356;52.380;9.820;2022-12-24T06:26:24;27.50;;;5.20;;
31786;SDS011;18356;52.380;9.820;2022-12-24T06:28:50;33.27;;;5.33;;
31786;SDS011;18356;52.380;9.820;2022-12-24T06:31:18;27.67;;;5.37;;
31786;SDS011;18356;52.380;9.820;2022-12-24T06:33:44;30.97;;;5.47;;
31786;SDS011;18356;52.380;9.820;2022-12-24T06:36:12;31.10;;;5.97;;
31786;SDS011;18356;52.380;9.820;2022-12-24T06:38:38;35.60;;;5.73;;
31786;SDS011;18356;52.380;9.820;2022-12-24T06:41:05;37.03;;;5.83;;
31786;SDS011;18356;52.380;9.820;2022-12-24T06:43:32;30.33;;;5.23;;
31786;SDS011;18356;52.380;9.820;2022-12-24T06:46:01;33.63;;;5.67;;
31786;SDS011;18356;52.380;9.820;2022-12-24T06:48:27;30.17;;;5.20;;
31786;SDS011;18356;52.380;9.820;2022-12-24T06:50:53;30.87;;;5.47;;
31786;SDS011;18356;52.380;9.820;2022-12-24T06:53:19;36.57;;;6.97;;
31786;SDS011;18356;52.380;9.820;2022-12-24T06:55:47;31.47;;;5.27;;
31786;SDS011;18356;52.380;9.820;2022-12-24T06:58:13;32.30;;;5.23;;
31786;SDS011;18356;52.380;9.820;2022-12-24T07:00:39;34.00;;;5.90;;
31786;SDS011;18356;52.380;9.820;2022-12-24T07:03:05;32.43;;;5.60;;
31786;SDS011;18356;52.380;9.820;2022-12-24T07:05:31;34.23;;;5.70;;
31786;SDS011;18356;52.380;9.820;2022-12-24T07:07:56;34.97;;;5.60;;
31786;SDS011;18356;52.380;9.820;2022-12-24T07:10:22;28.83;;;4.87;;
31786;SDS011;18356;52.380;9.820;2022-12-24T07:12:49;29.97;;;5.80;;
31786;SDS011;18356;52.380;9.820;2022-12-24T07:15:15;39.73;;;5.80;;
31786;SDS011;18356;52.380;9.820;2022-12-24T07:17:41;34.00;;;5.77;;
31786;SDS011;18356;52.380;9.820;2022-12-24T07:20:07;32.57;;;5.23;;
31786;SDS011;18356;52.380;9.820;2022-12-24T07:22:35;34.77;;;5.37;;
31786;SDS011;18356;52.380;9.820;2022-12-24T07:25:01;38.07;;;6.73;;
31786;SDS011;18356;52.380;9.820;2022-12-24T07:27:27;40.37;;;6.90;;
31786;SDS011;18356;52.380;9.820;2022-12-24T07:29:53;25.73;;;5.43;;
31786;SDS011;18356;52.380;9.820;2022-12-24T07:32:19;33.17;;;4.63;;
31786;SDS011;18356;52.380;9.820;2022-12-24T07:34:45;31.93;;;5.90;;
31786;SDS011;18356;52.380;9.820;2022-12-24T07:37:11;32.40;;;5.27;;
31786;SDS011;18356;52.380;9.820;2022-12-24T07:39:37;31.83;;;6.17;;
31786;SDS011;18356;52.380;9.820;2022-12-24T07:42:03;32.27;;;4.10;;
31786;SDS011;18356;52.380;9.820;2022-12-24T07:44:31;26.50;;;5.03;;
31786;SDS011;18356;52.380;9.820;2022-12-24T07:46:57;32.53;;;5.20;;
31786;SDS011;18356;52.380;9.820;2022-12-24T07:49:23;37.63;;;4.83;;
31786;SDS011;18356;52.380;9.820;2022-12-24T07:51:49;28.23;;;5.10;;
31786;SDS011;18356;52.380;9.820;2022-12-24T07:54:15;33.77;;;5.07;;
31786;SDS011;18356;52.380;9.820;2022-12-24T07:56:41;22.37;;;4.23;;
31786;SDS011;18356;52.380;9.820;2022-12-24T07:59:08;37.43;;;5.17;;
31786;SDS011;18356;52.380;9.820;2022-12-24T08:01:35;37.83;;;5.43;;
31786;SDS011;18356;52.380;9.820;2022-12-24T08:04:01;29.77;;;5.20;;
31786;SDS011;18356;52.380;9.820;2022-12-24T08:06:27;32.37;;;5.47;;
31786;SDS011;18356;52.380;9.820;2022-12-24T08:08:53;31.60;;;4.37;;
31786;SDS011;18356;52.380;9.820;2022-12-24T08:11:19;30.67;;;4.63;;
31786;SDS011;18356;52.380;9.820;2022-12-24T08:13:45;32.87;;;5.80;;
31786;SDS011;18356;52.380;9.820;2022-12-24T08:16:11;30.20;;;5.10;;
31786;SDS011;18356;52.380;9.820;2022-12-24T08:18:37;34.30;;;5.47;;
31786;SDS011;18356;52.380;9.820;2022-12-24T08:21:05;27.40;;;4.40;;
31786;SDS011;18356;52.380;9.820;2022-12-24T08:23:32;30.07;;;4.63;;
31786;SDS011;18356;52.380;9.820;2022-12-24T08:25:58;30.63;;;5.10;;
31786;SDS011;18356;52.380;9.820;2022-12-24T08:28:24;23.17;;;4.57;;
31786;SDS011;18356;52.380;9.820;2022-12-24T08:30:50;32.40;;;4.37;;
31786;SDS011;18356;52.380;9.820;2022-12-24T08:33:17;32.33;;;4.90;;
31786;SDS011;18356;52.380;9.820;2022-12-24T08:35:46;29.87;;;5.03;;
31786;SDS011;18356;52.380;9.820;2022-12-24T08:38:12;30.10;;;5.07;;
31786;SDS011;18356;52.380;9.820;2022-12-24T08:40:39;30.00;;;4.77;;
31786;SDS011;18356;52.380;9.820;2022-12-24T08:43:04;25.83;;;4.70;;
31786;SDS011;18356;52.380;9.820;2022-12-24T08:45:30;19.90;;;4.13;;
31786;SDS011;18356;52.380;9.820;2022-12-24T08:47:57;30.27;;;4.60;;
31786;SDS011;18356;52.380;9.820;2022-12-24T08:50:24;38.23;;;5.90;;
31786;SDS011;18356;52.380;9.820;2022-12-24T08:52:50;36.60;;;5.60;;
31786;SDS011;18356;52.380;9.820;2022-12-24T08:55:16;32.17;;;6.00;;
31786;SDS011;18356;52.380;9.820;2022-12-24T08:57:42;31.77;;;5.43;;
31786;SDS011;18356;52.380;9.820;2022-12-24T09:00:10;28.97;;;5.47;;
31786;SDS011;18356;52.380;9.820;2022-12-24T09:02:36;31.00;;;5.27;;
31786;SDS011;18356;52.380;9.820;2022-12-24T09:05:02;26.90;;;4.77;;
31786;SDS011;18356;52.380;9.820;2022-12-24T09:07:28;26.70;;;4.83;;
31786;SDS011;18356;52.380;9.820;2022-12-24T09:09:54;29.57;;;4.80;;
31786;SDS011;18356;52.380;9.820;2022-12-24T09:12:20;23.53;;;4.40;;
31786;SDS011;18356;52.380;9.820;2022-12-24T09:14:46;34.57;;;6.00;;
31786;SDS011;18356;52.380;9.820;2022-12-24T09:17:12;33.10;;;6.07;;
31786;SDS011;18356;52.380;9.820;2022-12-24T09:19:39;30.70;;;5.97;;
31786;SDS011;18356;52.380;9.820;2022-12-24T09:22:05;31.63;;;6.97;;
31786;SDS011;18356;52.380;9.820;2022-12-24T09:24:31;30.97;;;5.93;;
31786;SDS011;18356;52.380;9.820;2022-12-24T09:26:57;34.90;;;7.13;;
31786;SDS011;18356;52.380;9.820;2022-12-24T09:29:23;27.90;;;7.13;;
31786;SDS011;18356;52.380;9.820;2022-12-24T09:31:49;33.43;;;7.07;;
31786;SDS011;18356;52.380;9.820;2022-12-24T09:34:15;33.17;;;6.97;;
31786;SDS011;18356;52.380;9.820;2022-12-24T09:36:41;38.20;;;8.47;;
31786;SDS011;18356;52.380;9.820;2022-12-24T09:39:07;35.50;;;8.17;;
31786;SDS011;18356;52.380;9.820;2022-12-24T09:41:40;37.03;;;8.80;;
31786;SDS011;18356;52.380;9.820;2022-12-24T09:44:27;42.90;;;9.20;;
31786;SDS011;18356;52.380;9.820;2022-12-24T09:46:56;38.07;;;8.73;;
31786;SDS011;18356;52.380;9.820;2022-12-24T09:49:24;49.60;;;9.67;;
31786;SDS011;18356;52.380;9.820;2022-12-24T09:51:54;33.27;;;8.13;;
31786;SDS011;18356;52.380;9.820;2022-12-24T09:56:46;45.33;;;9.70;;
31786;SDS011;18356;52.380;9.820;2022-12-24T09:59:13;34.60;;;8.53;;
31786;SDS011;18356;52.380;9.820;2022-12-24T10:01:40;42.17;;;8.33;;
31786;SDS011;18356;52.380;9.820;2022-12-24T10:04:13;37.90;;;8.37;;
31786;SDS011;18356;52.380;9.820;2022-12-24T10:06:48;44.27;;;9.50;;
31786;SDS011;18356;52.380;9.820;2022-12-24T10:09:19;37.97;;;8.27;;
31786;SDS011;18356;52.380;9.820;2022-12-24T10:12:06;37.67;;;8.13;;
31786;SDS011;18356;52.380;9.820;2022-12-24T10:22:25;30.53;;;6.73;;
31786;SDS011;18356;52.380;9.820;2022-12-24T10:24:56;33.73;;;7.23;;
31786;SDS011;18356;52.380;9.820;2022-12-24T10:27:25;32.83;;;6.40;;
31786;SDS011;18356;52.380;9.820;2022-12-24T10:29:55;29.97;;;6.33;;
31786;SDS011;18356;52.380;9.820;2022-12-24T10:34:50;31.80;;;6.87;;
31786;SDS011;18356;52.380;9.820;2022-12-24T10:37:21;34.87;;;6.40;;
31786;SDS011;18356;52.380;9.820;2022-12-24T10:39:48;29.30;;;6.80;;
31786;SDS011;18356;52.380;9.820;2022-12-24T10:42:14;36.03;;;6.77;;
31786;SDS011;18356;52.380;9.820;2022-12-24T10:44:41;32.77;;;6.73;;
31786;SDS011;18356;52.380;9.820;2022-12-24T10:47:10;30.97;;;6.80;;
31786;SDS011;18356;52.380;9.820;2022-12-24T10:49:44;30.37;;;6.00;;
31786;SDS011;18356;52.380;9.820;2022-12-24T10:52:11;28.87;;;5.73;;
31786;SDS011;18356;52.380;9.820;2022-12-24T10:54:39;29.23;;;6.43;;
31786;SDS011;18356;52.380;9.820;2022-12-24T10:57:24;28.13;;;6.37;;
31786;SDS011;18356;52.380;9.820;2022-12-24T10:59:51;26.57;;;5.73;;
31786;SDS011;18356;52.380;9.820;2022-12-24T11:02:34;25.00;;;5.63;;
31786;SDS011;18356;52.380;9.820;2022-12-24T11:05:01;26.63;;;5.77;;
31786;SDS011;18356;52.380;9.820;2022-12-24T11:07:28;26.77;;;6.07;;
31786;SDS011;18356;52.380;9.820;2022-12-24T11:09:56;29.00;;;5.57;;
31786;SDS011;18356;52.380;9.820;2022-12-24T11:12:23;28.77;;;5.97;;
31786;SDS011;18356;52.380;9.820;2022-12-24T11:17:28;18.63;;;5.30;;
31786;SDS011;18356;52.380;9.820;2022-12-24T11:19:54;20.07;;;5.03;;
31786;SDS011;18356;52.380;9.820;2022-12-24T11:24:46;25.10;;;5.43;;
31786;SDS011;18356;52.380;9.820;2022-12-24T11:32:42;24.27;;;5.63;;
31786;SDS011;18356;52.380;9.820;2022-12-24T11:35:16;24.43;;;7.40;;
31786;SDS011;18356;52.380;9.820;2022-12-24T11:37:42;23.87;;;5.33;;
31786;SDS011;18356;52.380;9.820;2022-12-24T11:40:21;31.13;;;6.47;;
31786;SDS011;18356;52.380;9.820;2022-12-24T11:42:47;32.57;;;5.77;;
31786;SDS011;18356;52.380;9.820;2022-12-24T11:45:23;29.37;;;7.00;;
31786;SDS011;18356;52.380;9.820;2022-12-24T11:47:50;21.03;;;5.40;;
31786;SDS011;18356;52.380;9.820;2022-12-24T11:55:32;23.33;;;6.07;;
31786;SDS011;18356;52.380;9.820;2022-12-24T11:58:04;22.37;;;5.60;;
31786;SDS011;18356;52.380;9.820;2022-12-24T12:00:32;20.03;;;5.30;;
31786;SDS011;18356;52.380;9.820;2022-12-24T12:02:59;35.10;;;13.87;;
31786;SDS011;18356;52.380;9.820;2022-12-24T12:05:27;16.23;;;4.07;;
31786;SDS011;18356;52.380;9.820;2022-12-24T12:08:07;15.40;;;4.43;;
31786;SDS011;18356;52.380;9.820;2022-12-24T12:10:38;20.87;;;4.47;;
31786;SDS011;18356;52.380;9.820;2022-12-24T12:13:07;20.17;;;4.27;;
31786;SDS011;18356;52.380;9.820;2022-12-24T12:15:39;15.40;;;4.17;;
31786;SDS011;18356;52.380;9.820;2022-12-24T12:18:11;16.50;;;3.80;;
31786;SDS011;18356;52.380;9.820;2022-12-24T12:20:40;18.90;;;4.60;;
31786;SDS011;18356;52.380;9.820;2022-12-24T12:28:06;14.77;;;3.87;;
31786;SDS011;18356;52.380;9.820;2022-12-24T12:30:36;14.83;;;3.53;;
31786;SDS011;18356;52.380;9.820;2022-12-24T12:33:12;12.93;;;3.23;;
31786;SDS011;18356;52.380;9.820;2022-12-24T12:35:40;16.43;;;3.93;;
31786;SDS011;18356;52.380;9.820;2022-12-24T12:38:10;16.20;;;3.27;;
31786;SDS011;18356;52.380;9.820;2022-12-24T12:45:57;19.27;;;4.25;;
31786;SDS011;18356;52.380;9.820;2022-12-24T12:51:14;12.93;;;3.27;;
31786;SDS011;18356;52.380;9.820;2022-12-24T12:56:29;11.00;;;3.03;;
31786;SDS011;18356;52.380;9.820;2022-12-24T12:59:00;12.83;;;3.57;;
31786;SDS011;18356;52.380;9.820;2022-12-24T13:17:13;18.80;;;4.23;;
31786;SDS011;18356;52.380;9.820;2022-12-24T13:22:27;19.00;;;4.53;;
31786;SDS011;18356;52.380;9.820;2022-12-24T13:24:53;15.07;;;4.10;;
31786;SDS011;18356;52.380;9.820;2022-12-24T13:27:27;15.53;;;3.63;;
31786;SDS011;18356;52.380;9.820;2022-12-24T13:30:01;19.13;;;5.20;;
31786;SDS011;18356;52.380;9.820;2022-12-24T13:35:25;17.15;;;4.68;;
31786;SDS011;18356;52.380;9.820;2022-12-24T13:37:49;20.17;;;5.33;;
31786;SDS011;18356;52.380;9.820;2022-12-24T13:40:21;23.30;;;5.57;;
31786;SDS011;18356;52.380;9.820;2022-12-24T13:42:54;23.60;;;5.40;;
31786;SDS011;18356;52.380;9.820;2022-12-24T13:50:42;7.47;;;1.50;;
31786;SDS011;18356;52.380;9.820;2022-12-24T13:55:54;5.40;;;1.40;;
31786;SDS011;18356;52.380;9.820;2022-12-24T13:58:22;10.53;;;1.70;;
31786;SDS011;18356;52.380;9.820;2022-12-24T14:00:59;10.00;;;2.10;;
31786;SDS011;18356;52.380;9.820;2022-12-24T14:03:30;10.47;;;2.40;;
31786;SDS011;18356;52.380;9.820;2022-12-24T14:06:40;10.70;;;3.10;;
31786;SDS011;18356;52.380;9.820;2022-12-24T14:08:47;8.40;;;1.80;;
31786;SDS011;18356;52.380;9.820;2022-12-24T14:11:18;4.30;;;1.40;;
31786;SDS011;18356;52.380;9.820;2022-12-24T14:18:41;7.47;;;1.50;;
31786;SDS011;18356;52.380;9.820;2022-12-24T14:21:13;8.87;;;2.13;;
31786;SDS011;18356;52.380;9.820;2022-12-24T14:26:19;5.87;;;1.90;;
31786;SDS011;18356;52.380;9.820;2022-12-24T14:28:48;7.13;;;1.60;;
31786;SDS011;18356;52.380;9.820;2022-12-24T14:31:18;11.83;;;2.17;;
31786;SDS011;18356;52.380;9.820;2022-12-24T14:33:44;11.37;;;2.90;;
31786;SDS011;18356;52.380;9.820;2022-12-24T14:36:11;13.47;;;3.13;;
31786;SDS011;18356;52.380;9.820;2022-12-24T14:38:39;10.77;;;2.70;;
31786;SDS011;18356;52.380;9.820;2022-12-24T14:56:44;16.97;;;6.47;;
31786;SDS011;18356;52.380;9.820;2022-12-24T14:59:18;14.27;;;5.33;;
31786;SDS011;18356;52.380;9.820;2022-12-24T15:01:44;17.43;;;4.47;;
31786;SDS011;18356;52.380;9.820;2022-12-24T15:06:44;13.93;;;4.50;;
31786;SDS011;18356;52.380;9.820;2022-12-24T15:09:26;17.67;;;4.23;;
31786;SDS011;18356;52.380;9.820;2022-12-24T15:11:54;14.37;;;4.43;;
31786;SDS011;18356;52.380;9.820;2022-12-24T15:14:21;16.70;;;4.70;;
31786;SDS011;18356;52.380;9.820;2022-12-24T15:17:06;18.07;;;4.60;;
31786;SDS011;18356;52.380;9.820;2022-12-24T15:21:59;17.80;;;5.40;;
31786;SDS011;18356;52.380;9.820;2022-12-24T15:24:26;17.90;;;6.20;;
31786;SDS011;18356;52.380;9.820;2022-12-24T15:26:53;17.17;;;5.60;;
31786;SDS011;18356;52.380;9.820;2022-12-24T15:29:24;19.90;;;6.47;;
31786;SDS011;18356;52.380;9.820;2022-12-24T15:31:57;23.67;;;5.90;;
31786;SDS011;18356;52.380;9.820;2022-12-24T15:34:44;21.73;;;5.30;;
31786;SDS011;18356;52.380;9.820;2022-12-24T15:39:36;25.63;;;6.97;;
31786;SDS011;18356;52.380;9.820;2022-12-24T15:42:03;21.80;;;6.83;;
31786;SDS011;18356;52.380;9.820;2022-12-24T15:45:01;23.03;;;7.67;;
31786;SDS011;18356;52.380;9.820;2022-12-24T15:47:27;24.43;;;9.07;;
31786;SDS011;18356;52.380;9.820;2022-12-24T15:49:54;38.00;;;14.27;;
31786;SDS011;18356;52.380;9.820;2022-12-24T15:52:20;51.97;;;23.23;;
31786;SDS011;18356;52.380;9.820;2022-12-24T15:54:50;38.40;;;16.53;;
31786;SDS011;18356;52.380;9.820;2022-12-24T15:57:25;31.77;;;15.10;;
31786;SDS011;18356;52.380;9.820;2022-12-24T15:59:52;37.30;;;16.23;;
31786;SDS011;18356;52.380;9.820;2022-12-24T16:10:33;35.00;;;10.23;;
31786;SDS011;18356;52.380;9.820;2022-12-24T16:12:59;30.40;;;9.40;;
31786;SDS011;18356;52.380;9.820;2022-12-24T16:15:25;32.23;;;10.20;;
31786;SDS011;18356;52.380;9.820;2022-12-24T16:17:51;36.87;;;10.23;;
31786;SDS011;18356;52.380;9.820;2022-12-24T16:20:19;33.10;;;9.63;;
31786;SDS011;18356;52.380;9.820;2022-12-24T16:22:47;40.63;;;9.67;;
31786;SDS011;18356;52.380;9.820;2022-12-24T16:27:44;43.90;;;12.07;;
31786;SDS011;18356;52.380;9.820;2022-12-24T16:30:11;36.00;;;11.90;;
31786;SDS011;18356;52.380;9.820;2022-12-24T16:32:37;48.80;;;12.63;;
31786;SDS011;18356;52.380;9.820;2022-12-24T16:35:04;37.10;;;11.63;;
31786;SDS011;18356;52.380;9.820;2022-12-24T16:37:31;42.03;;;12.80;;
31786;SDS011;18356;52.380;9.820;2022-12-24T16:39:58;47.60;;;14.47;;
31786;SDS011;18356;52.380;9.820;2022-12-24T16:42:25;45.43;;;13.43;;
31786;SDS011;18356;52.380;9.820;2022-12-24T16:45:09;44.50;;;12.57;;
31786;SDS011;18356;52.380;9.820;2022-12-24T16:47:35;39.83;;;12.90;;
31786;SDS011;18356;52.380;9.820;2022-12-24T16:50:03;43.67;;;13.37;;
31786;SDS011;18356;52.380;9.820;2022-12-24T16:52:30;38.43;;;13.70;;
31786;SDS011;18356;52.380;9.820;2022-12-24T16:54:59;41.90;;;12.57;;